sensor_id;sensor_type;location;lat;lon;timestamp;P1;durP1;ratioP1;P2;durP2;ratioP2
11247;SDS011;5681;53.316;13.950;2023-03-01T00:01:59;9.63;;;5.40;;
11247;SDS011;5681;53.316;13.950;2023-03-01T00:04:26;9.27;;;5.50;;
11247;SDS011;5681;53.316;13.950;2023-03-01T00:06:53;9.97;;;5.60;;
11247;SDS011;5681;53.316;13.950;2023-03-01T00:09:19;9.20;;;5.37;;
11247;SDS011;5681;53.316;13.950;2023-03-01T00:11:46;7.30;;;5.17;;
11247;SDS011;5681;53.316;13.950;2023-03-01T00:14:13;9.07;;;5.90;;
11247;SDS011;5681;53.316;13.950;2023-03-01T00:16:42;8.13;;;5.50;;
11247;SDS011;5681;53.316;13.950;2023-03-01T00:19:09;8.50;;;5.33;;
11247;SDS011;5681;53.316;13.950;2023-03-01T00:21:39;8.83;;;5.60;;
11247;SDS011;5681;53.316;13.950;2023-03-01T00:24:05;9.40;;;4.97;;
11247;SDS011;5681;53.316;13.950;2023-03-01T00:26:32;8.00;;;5.43;;
11247;SDS011;5681;53.316;13.950;2023-03-01T00:28:59;10.10;;;5.73;;
11247;SDS011;5681;53.316;13.950;2023-03-01T00:31:27;8.57;;;5.30;;
11247;SDS011;5681;53.316;13.950;2023-03-01T00:33:56;7.60;;;5.20;;
11247;SDS011;5681;53.316;13.950;2023-03-01T00:36:24;7.47;;;4.60;;
11247;SDS011;5681;53.316;13.950;2023-03-01T00:38:51;8.53;;;4.70;;
11247;SDS011;5681;53.316;13.950;2023-03-01T00:41:19;11.80;;;5.40;;
11247;SDS011;5681;53.316;13.950;2023-03-01T00:43:47;6.97;;;4.30;;
11247;SDS011;5681;53.316;13.950;2023-03-01T00:46:15;9.57;;;5.57;;
11247;SDS011;5681;53.316;13.950;2023-03-01T00:48:44;6.93;;;4.43;;
11247;SDS011;5681;53.316;13.950;2023-03-01T00:51:11;5.90;;;4.10;;
11247;SDS011;5681;53.316;13.950;2023-03-01T00:53:39;8.00;;;4.37;;
11247;SDS011;5681;53.316;13.950;2023-03-01T00:56:06;7.00;;;4.40;;
11247;SDS011;5681;53.316;13.950;2023-03-01T00:58:34;10.17;;;4.40;;
11247;SDS011;5681;53.316;13.950;2023-03-01T01:01:00;6.60;;;4.17;;
11247;SDS011;5681;53.316;13.950;2023-03-01T01:03:42;5.50;;;4.00;;
11247;SDS011;5681;53.316;13.950;2023-03-01T01:06:13;6.23;;;4.17;;
11247;SDS011;5681;53.316;13.950;2023-03-01T01:08:41;8.90;;;4.43;;
11247;SDS011;5681;53.316;13.950;2023-03-01T01:11:08;7.27;;;4.30;;
11247;SDS011;5681;53.316;13.950;2023-03-01T01:13:35;6.87;;;4.10;;
11247;SDS011;5681;53.316;13.950;2023-03-01T01:16:01;8.70;;;4.17;;
11247;SDS011;5681;53.316;13.950;2023-03-01T01:18:28;5.17;;;3.80;;
11247;SDS011;5681;53.316;13.950;2023-03-01T01:20:54;5.67;;;3.90;;
11247;SDS011;5681;53.316;13.950;2023-03-01T01:23:22;7.07;;;4.00;;
11247;SDS011;5681;53.316;13.950;2023-03-01T01:25:48;6.43;;;3.70;;
11247;SDS011;5681;53.316;13.950;2023-03-01T01:28:15;8.10;;;3.93;;
11247;SDS011;5681;53.316;13.950;2023-03-01T01:30:42;6.00;;;3.70;;
11247;SDS011;5681;53.316;13.950;2023-03-01T01:33:08;6.40;;;4.10;;
11247;SDS011;5681;53.316;13.950;2023-03-01T01:35:34;6.20;;;3.80;;
11247;SDS011;5681;53.316;13.950;2023-03-01T01:38:01;6.13;;;3.93;;
11247;SDS011;5681;53.316;13.950;2023-03-01T01:40:28;7.30;;;3.90;;
11247;SDS011;5681;53.316;13.950;2023-03-01T01:42:55;8.53;;;4.33;;
11247;SDS011;5681;53.316;13.950;2023-03-01T01:45:24;6.77;;;4.10;;
11247;SDS011;5681;53.316;13.950;2023-03-01T01:47:53;5.80;;;3.97;;
11247;SDS011;5681;53.316;13.950;2023-03-01T01:50:21;6.97;;;3.90;;
11247;SDS011;5681;53.316;13.950;2023-03-01T01:52:48;6.23;;;3.90;;
11247;SDS011;5681;53.316;13.950;2023-03-01T01:55:17;6.87;;;4.37;;
11247;SDS011;5681;53.316;13.950;2023-03-01T01:57:48;8.73;;;4.40;;
11247;SDS011;5681;53.316;13.950;2023-03-01T02:00:16;6.03;;;4.07;;
11247;SDS011;5681;53.316;13.950;2023-03-01T02:02:46;7.17;;;4.33;;
11247;SDS011;5681;53.316;13.950;2023-03-01T02:05:14;8.17;;;4.20;;
11247;SDS011;5681;53.316;13.950;2023-03-01T02:07:47;7.07;;;4.07;;
11247;SDS011;5681;53.316;13.950;2023-03-01T02:10:14;7.60;;;4.03;;
11247;SDS011;5681;53.316;13.950;2023-03-01T02:12:41;4.80;;;3.70;;
11247;SDS011;5681;53.316;13.950;2023-03-01T02:15:09;7.43;;;4.10;;
11247;SDS011;5681;53.316;13.950;2023-03-01T02:17:36;9.63;;;4.40;;
11247;SDS011;5681;53.316;13.950;2023-03-01T02:20:06;6.00;;;4.10;;
11247;SDS011;5681;53.316;13.950;2023-03-01T02:22:40;5.97;;;3.87;;
11247;SDS011;5681;53.316;13.950;2023-03-01T02:25:12;7.73;;;4.33;;
11247;SDS011;5681;53.316;13.950;2023-03-01T02:27:51;6.60;;;4.10;;
11247;SDS011;5681;53.316;13.950;2023-03-01T02:30:23;7.30;;;4.10;;
11247;SDS011;5681;53.316;13.950;2023-03-01T02:32:51;7.47;;;4.20;;
11247;SDS011;5681;53.316;13.950;2023-03-01T02:35:18;7.93;;;4.03;;
11247;SDS011;5681;53.316;13.950;2023-03-01T02:37:45;6.77;;;4.60;;
11247;SDS011;5681;53.316;13.950;2023-03-01T02:40:13;8.57;;;4.27;;
11247;SDS011;5681;53.316;13.950;2023-03-01T02:42:43;6.37;;;4.10;;
11247;SDS011;5681;53.316;13.950;2023-03-01T02:45:13;6.23;;;4.37;;
11247;SDS011;5681;53.316;13.950;2023-03-01T02:47:41;8.33;;;4.40;;
11247;SDS011;5681;53.316;13.950;2023-03-01T02:50:11;6.80;;;4.00;;
11247;SDS011;5681;53.316;13.950;2023-03-01T02:52:43;8.43;;;4.07;;
11247;SDS011;5681;53.316;13.950;2023-03-01T02:55:13;5.57;;;4.13;;
11247;SDS011;5681;53.316;13.950;2023-03-01T02:57:41;5.97;;;4.20;;
11247;SDS011;5681;53.316;13.950;2023-03-01T03:00:09;7.70;;;4.13;;
11247;SDS011;5681;53.316;13.950;2023-03-01T03:02:45;7.07;;;4.30;;
11247;SDS011;5681;53.316;13.950;2023-03-01T03:05:13;8.33;;;4.17;;
11247;SDS011;5681;53.316;13.950;2023-03-01T03:07:41;6.43;;;4.07;;
11247;SDS011;5681;53.316;13.950;2023-03-01T03:10:10;6.00;;;4.33;;
11247;SDS011;5681;53.316;13.950;2023-03-01T03:12:38;7.60;;;3.77;;
11247;SDS011;5681;53.316;13.950;2023-03-01T03:15:05;10.83;;;3.80;;
11247;SDS011;5681;53.316;13.950;2023-03-01T03:17:33;8.67;;;4.30;;
11247;SDS011;5681;53.316;13.950;2023-03-01T03:20:01;8.03;;;4.10;;
11247;SDS011;5681;53.316;13.950;2023-03-01T03:22:29;7.40;;;3.80;;
11247;SDS011;5681;53.316;13.950;2023-03-01T03:24:55;5.57;;;3.77;;
11247;SDS011;5681;53.316;13.950;2023-03-01T03:27:21;7.23;;;4.30;;
11247;SDS011;5681;53.316;13.950;2023-03-01T03:29:48;7.57;;;4.13;;
11247;SDS011;5681;53.316;13.950;2023-03-01T03:32:14;7.87;;;4.60;;
11247;SDS011;5681;53.316;13.950;2023-03-01T03:34:40;6.77;;;4.37;;
11247;SDS011;5681;53.316;13.950;2023-03-01T03:37:08;5.20;;;3.90;;
11247;SDS011;5681;53.316;13.950;2023-03-01T03:39:55;6.27;;;3.90;;
11247;SDS011;5681;53.316;13.950;2023-03-01T03:42:22;6.73;;;4.23;;
11247;SDS011;5681;53.316;13.950;2023-03-01T03:44:48;8.10;;;3.73;;
11247;SDS011;5681;53.316;13.950;2023-03-01T03:47:14;8.13;;;4.83;;
11247;SDS011;5681;53.316;13.950;2023-03-01T03:49:41;7.33;;;4.30;;
11247;SDS011;5681;53.316;13.950;2023-03-01T03:52:09;6.97;;;4.00;;
11247;SDS011;5681;53.316;13.950;2023-03-01T03:54:38;6.70;;;4.43;;
11247;SDS011;5681;53.316;13.950;2023-03-01T03:57:05;6.20;;;4.07;;
11247;SDS011;5681;53.316;13.950;2023-03-01T03:59:31;7.33;;;4.53;;
11247;SDS011;5681;53.316;13.950;2023-03-01T04:01:57;8.60;;;4.47;;
11247;SDS011;5681;53.316;13.950;2023-03-01T04:04:24;9.93;;;5.07;;
11247;SDS011;5681;53.316;13.950;2023-03-01T04:06:50;6.33;;;4.33;;
11247;SDS011;5681;53.316;13.950;2023-03-01T04:09:18;6.40;;;4.53;;
11247;SDS011;5681;53.316;13.950;2023-03-01T04:11:44;8.07;;;4.87;;
11247;SDS011;5681;53.316;13.950;2023-03-01T04:14:10;12.90;;;6.00;;
11247;SDS011;5681;53.316;13.950;2023-03-01T04:16:37;8.07;;;5.23;;
11247;SDS011;5681;53.316;13.950;2023-03-01T04:19:03;9.50;;;6.20;;
11247;SDS011;5681;53.316;13.950;2023-03-01T04:21:31;7.10;;;5.00;;
11247;SDS011;5681;53.316;13.950;2023-03-01T04:23:57;7.63;;;4.73;;
11247;SDS011;5681;53.316;13.950;2023-03-01T04:26:25;7.67;;;4.70;;
11247;SDS011;5681;53.316;13.950;2023-03-01T04:28:52;6.33;;;4.37;;
11247;SDS011;5681;53.316;13.950;2023-03-01T04:31:20;6.37;;;4.80;;
11247;SDS011;5681;53.316;13.950;2023-03-01T04:33:47;7.27;;;4.40;;
11247;SDS011;5681;53.316;13.950;2023-03-01T04:36:16;7.00;;;4.13;;
11247;SDS011;5681;53.316;13.950;2023-03-01T04:38:43;9.43;;;4.80;;
11247;SDS011;5681;53.316;13.950;2023-03-01T04:41:12;15.13;;;8.27;;
11247;SDS011;5681;53.316;13.950;2023-03-01T04:43:41;9.00;;;4.50;;
11247;SDS011;5681;53.316;13.950;2023-03-01T04:46:08;7.37;;;4.87;;
11247;SDS011;5681;53.316;13.950;2023-03-01T04:48:37;7.53;;;4.60;;
11247;SDS011;5681;53.316;13.950;2023-03-01T04:51:04;15.13;;;8.03;;
11247;SDS011;5681;53.316;13.950;2023-03-01T04:53:31;13.93;;;10.80;;
11247;SDS011;5681;53.316;13.950;2023-03-01T04:55:58;6.57;;;4.97;;
11247;SDS011;5681;53.316;13.950;2023-03-01T04:58:25;8.87;;;5.20;;
11247;SDS011;5681;53.316;13.950;2023-03-01T05:00:54;6.63;;;4.37;;
11247;SDS011;5681;53.316;13.950;2023-03-01T05:03:21;9.27;;;5.00;;
11247;SDS011;5681;53.316;13.950;2023-03-01T05:05:48;7.23;;;4.67;;
11247;SDS011;5681;53.316;13.950;2023-03-01T05:08:16;8.83;;;4.63;;
11247;SDS011;5681;53.316;13.950;2023-03-01T05:10:43;7.13;;;4.60;;
11247;SDS011;5681;53.316;13.950;2023-03-01T05:13:11;10.13;;;4.37;;
11247;SDS011;5681;53.316;13.950;2023-03-01T05:15:38;8.07;;;3.87;;
11247;SDS011;5681;53.316;13.950;2023-03-01T05:18:06;9.47;;;5.10;;
11247;SDS011;5681;53.316;13.950;2023-03-01T05:20:36;11.93;;;5.37;;
11247;SDS011;5681;53.316;13.950;2023-03-01T05:23:03;8.80;;;5.07;;
11247;SDS011;5681;53.316;13.950;2023-03-01T05:25:30;6.90;;;4.23;;
11247;SDS011;5681;53.316;13.950;2023-03-01T05:27:57;7.97;;;4.20;;
11247;SDS011;5681;53.316;13.950;2023-03-01T05:30:24;9.53;;;4.33;;
11247;SDS011;5681;53.316;13.950;2023-03-01T05:32:50;6.70;;;4.10;;
11247;SDS011;5681;53.316;13.950;2023-03-01T05:35:23;6.90;;;3.97;;
11247;SDS011;5681;53.316;13.950;2023-03-01T05:37:49;10.40;;;4.77;;
11247;SDS011;5681;53.316;13.950;2023-03-01T05:40:17;7.73;;;5.30;;
11247;SDS011;5681;53.316;13.950;2023-03-01T05:42:45;9.13;;;4.73;;
11247;SDS011;5681;53.316;13.950;2023-03-01T05:45:12;6.83;;;4.70;;
11247;SDS011;5681;53.316;13.950;2023-03-01T05:47:39;8.97;;;4.80;;
11247;SDS011;5681;53.316;13.950;2023-03-01T05:50:08;6.27;;;4.60;;
11247;SDS011;5681;53.316;13.950;2023-03-01T05:52:38;6.87;;;4.43;;
11247;SDS011;5681;53.316;13.950;2023-03-01T05:55:05;7.20;;;5.20;;
11247;SDS011;5681;53.316;13.950;2023-03-01T05:57:32;8.20;;;5.50;;
11247;SDS011;5681;53.316;13.950;2023-03-01T05:59:58;9.53;;;6.40;;
11247;SDS011;5681;53.316;13.950;2023-03-01T06:02:24;10.03;;;6.80;;
11247;SDS011;5681;53.316;13.950;2023-03-01T06:04:52;11.37;;;6.20;;
11247;SDS011;5681;53.316;13.950;2023-03-01T06:07:18;11.70;;;5.43;;
11247;SDS011;5681;53.316;13.950;2023-03-01T06:09:46;10.00;;;5.50;;
11247;SDS011;5681;53.316;13.950;2023-03-01T06:12:12;11.93;;;6.93;;
11247;SDS011;5681;53.316;13.950;2023-03-01T06:14:38;10.27;;;7.13;;
11247;SDS011;5681;53.316;13.950;2023-03-01T06:17:05;20.47;;;13.87;;
11247;SDS011;5681;53.316;13.950;2023-03-01T06:19:31;32.63;;;26.37;;
11247;SDS011;5681;53.316;13.950;2023-03-01T06:21:57;29.57;;;24.50;;
11247;SDS011;5681;53.316;13.950;2023-03-01T06:24:24;27.43;;;21.13;;
11247;SDS011;5681;53.316;13.950;2023-03-01T06:26:52;23.00;;;14.37;;
11247;SDS011;5681;53.316;13.950;2023-03-01T06:29:19;11.40;;;7.90;;
11247;SDS011;5681;53.316;13.950;2023-03-01T06:31:45;11.80;;;7.93;;
11247;SDS011;5681;53.316;13.950;2023-03-01T06:34:12;20.77;;;7.27;;
11247;SDS011;5681;53.316;13.950;2023-03-01T06:36:38;25.67;;;12.50;;
11247;SDS011;5681;53.316;13.950;2023-03-01T06:39:05;38.07;;;21.27;;
11247;SDS011;5681;53.316;13.950;2023-03-01T06:41:32;29.77;;;13.83;;
11247;SDS011;5681;53.316;13.950;2023-03-01T06:43:59;13.30;;;7.87;;
11247;SDS011;5681;53.316;13.950;2023-03-01T06:46:27;13.17;;;6.13;;
11247;SDS011;5681;53.316;13.950;2023-03-01T06:48:54;8.67;;;5.50;;
11247;SDS011;5681;53.316;13.950;2023-03-01T06:51:20;7.67;;;4.87;;
11247;SDS011;5681;53.316;13.950;2023-03-01T06:53:46;9.37;;;6.67;;
11247;SDS011;5681;53.316;13.950;2023-03-01T06:56:12;26.93;;;13.90;;
11247;SDS011;5681;53.316;13.950;2023-03-01T06:58:39;31.30;;;16.30;;
11247;SDS011;5681;53.316;13.950;2023-03-01T07:01:07;29.83;;;16.20;;
11247;SDS011;5681;53.316;13.950;2023-03-01T07:03:33;24.33;;;15.40;;
11247;SDS011;5681;53.316;13.950;2023-03-01T07:06:00;19.50;;;12.17;;
11247;SDS011;5681;53.316;13.950;2023-03-01T07:08:26;9.77;;;7.10;;
11247;SDS011;5681;53.316;13.950;2023-03-01T07:10:54;14.63;;;8.40;;
11247;SDS011;5681;53.316;13.950;2023-03-01T07:13:21;21.33;;;13.53;;
11247;SDS011;5681;53.316;13.950;2023-03-01T07:15:47;16.03;;;7.00;;
11247;SDS011;5681;53.316;13.950;2023-03-01T07:18:15;11.50;;;6.80;;
11247;SDS011;5681;53.316;13.950;2023-03-01T07:20:41;10.07;;;5.97;;
11247;SDS011;5681;53.316;13.950;2023-03-01T07:23:08;16.60;;;6.90;;
11247;SDS011;5681;53.316;13.950;2023-03-01T07:25:34;7.20;;;4.70;;
11247;SDS011;5681;53.316;13.950;2023-03-01T07:28:01;6.73;;;4.30;;
11247;SDS011;5681;53.316;13.950;2023-03-01T07:30:27;10.30;;;5.20;;
11247;SDS011;5681;53.316;13.950;2023-03-01T07:32:54;9.73;;;5.10;;
11247;SDS011;5681;53.316;13.950;2023-03-01T07:35:21;9.10;;;5.87;;
11247;SDS011;5681;53.316;13.950;2023-03-01T07:37:48;14.90;;;7.20;;
11247;SDS011;5681;53.316;13.950;2023-03-01T07:40:14;12.43;;;6.90;;
11247;SDS011;5681;53.316;13.950;2023-03-01T07:42:41;10.37;;;5.60;;
11247;SDS011;5681;53.316;13.950;2023-03-01T07:45:08;7.53;;;4.73;;
11247;SDS011;5681;53.316;13.950;2023-03-01T07:47:35;9.30;;;7.00;;
11247;SDS011;5681;53.316;13.950;2023-03-01T07:50:01;7.83;;;3.97;;
11247;SDS011;5681;53.316;13.950;2023-03-01T07:52:30;8.13;;;4.03;;
11247;SDS011;5681;53.316;13.950;2023-03-01T07:54:56;13.20;;;4.33;;
11247;SDS011;5681;53.316;13.950;2023-03-01T07:57:23;10.77;;;4.60;;
11247;SDS011;5681;53.316;13.950;2023-03-01T07:59:49;6.70;;;4.37;;
11247;SDS011;5681;53.316;13.950;2023-03-01T08:02:16;6.23;;;4.20;;
11247;SDS011;5681;53.316;13.950;2023-03-01T08:04:42;7.93;;;4.87;;
11247;SDS011;5681;53.316;13.950;2023-03-01T08:07:08;9.87;;;4.10;;
11247;SDS011;5681;53.316;13.950;2023-03-01T08:09:36;6.27;;;3.70;;
11247;SDS011;5681;53.316;13.950;2023-03-01T08:12:03;5.80;;;3.40;;
11247;SDS011;5681;53.316;13.950;2023-03-01T08:14:29;8.53;;;3.93;;
11247;SDS011;5681;53.316;13.950;2023-03-01T08:16:56;9.87;;;4.07;;
11247;SDS011;5681;53.316;13.950;2023-03-01T08:19:22;4.77;;;3.70;;
11247;SDS011;5681;53.316;13.950;2023-03-01T08:21:49;4.37;;;3.13;;
11247;SDS011;5681;53.316;13.950;2023-03-01T08:24:15;6.80;;;3.50;;
11247;SDS011;5681;53.316;13.950;2023-03-01T08:26:43;4.70;;;3.50;;
11247;SDS011;5681;53.316;13.950;2023-03-01T08:29:09;5.67;;;3.40;;
11247;SDS011;5681;53.316;13.950;2023-03-01T08:31:36;7.17;;;3.77;;
11247;SDS011;5681;53.316;13.950;2023-03-01T08:34:05;5.43;;;3.50;;
11247;SDS011;5681;53.316;13.950;2023-03-01T08:36:40;5.43;;;3.43;;
11247;SDS011;5681;53.316;13.950;2023-03-01T08:39:07;5.10;;;3.13;;
11247;SDS011;5681;53.316;13.950;2023-03-01T08:41:35;26.57;;;4.30;;
11247;SDS011;5681;53.316;13.950;2023-03-01T08:44:03;7.87;;;3.10;;
11247;SDS011;5681;53.316;13.950;2023-03-01T08:46:31;5.40;;;3.23;;
11247;SDS011;5681;53.316;13.950;2023-03-01T08:48:58;5.43;;;3.20;;
11247;SDS011;5681;53.316;13.950;2023-03-01T08:51:25;20.07;;;3.50;;
11247;SDS011;5681;53.316;13.950;2023-03-01T08:53:52;7.30;;;3.20;;
11247;SDS011;5681;53.316;13.950;2023-03-01T08:56:18;4.00;;;3.07;;
11247;SDS011;5681;53.316;13.950;2023-03-01T08:58:45;5.57;;;3.33;;
11247;SDS011;5681;53.316;13.950;2023-03-01T09:01:16;6.50;;;3.17;;
11247;SDS011;5681;53.316;13.950;2023-03-01T09:03:43;15.80;;;4.10;;
11247;SDS011;5681;53.316;13.950;2023-03-01T09:06:10;5.43;;;3.70;;
11247;SDS011;5681;53.316;13.950;2023-03-01T09:08:37;5.40;;;3.23;;
11247;SDS011;5681;53.316;13.950;2023-03-01T09:11:05;3.50;;;2.70;;
11247;SDS011;5681;53.316;13.950;2023-03-01T09:13:32;58.73;;;8.47;;
11247;SDS011;5681;53.316;13.950;2023-03-01T09:16:00;6.40;;;3.40;;
11247;SDS011;5681;53.316;13.950;2023-03-01T09:18:28;4.80;;;3.30;;
11247;SDS011;5681;53.316;13.950;2023-03-01T09:21:00;4.90;;;3.30;;
11247;SDS011;5681;53.316;13.950;2023-03-01T09:23:27;8.03;;;3.80;;
11247;SDS011;5681;53.316;13.950;2023-03-01T09:25:53;8.37;;;3.40;;
11247;SDS011;5681;53.316;13.950;2023-03-01T09:28:19;5.27;;;3.27;;
11247;SDS011;5681;53.316;13.950;2023-03-01T09:30:48;6.87;;;3.37;;
11247;SDS011;5681;53.316;13.950;2023-03-01T09:33:14;8.90;;;4.47;;
11247;SDS011;5681;53.316;13.950;2023-03-01T09:35:42;5.03;;;3.60;;
11247;SDS011;5681;53.316;13.950;2023-03-01T09:38:11;6.80;;;3.90;;
11247;SDS011;5681;53.316;13.950;2023-03-01T09:40:41;8.17;;;3.90;;
11247;SDS011;5681;53.316;13.950;2023-03-01T09:43:08;8.83;;;4.10;;
11247;SDS011;5681;53.316;13.950;2023-03-01T09:45:43;5.27;;;3.73;;
11247;SDS011;5681;53.316;13.950;2023-03-01T09:48:13;5.85;;;4.28;;
11247;SDS011;5681;53.316;13.950;2023-03-01T09:50:44;13.67;;;4.27;;
11247;SDS011;5681;53.316;13.950;2023-03-01T09:53:13;7.10;;;3.80;;
11247;SDS011;5681;53.316;13.950;2023-03-01T09:55:42;9.50;;;3.85;;
11247;SDS011;5681;53.316;13.950;2023-03-01T09:58:18;10.27;;;4.57;;
11247;SDS011;5681;53.316;13.950;2023-03-01T10:00:54;8.40;;;5.55;;
11247;SDS011;5681;53.316;13.950;2023-03-01T10:03:23;6.90;;;4.82;;
11247;SDS011;5681;53.316;13.950;2023-03-01T10:05:55;4.18;;;3.78;;
11247;SDS011;5681;53.316;13.950;2023-03-01T10:08:28;7.95;;;4.45;;
11247;SDS011;5681;53.316;13.950;2023-03-01T10:11:01;7.78;;;4.00;;
11247;SDS011;5681;53.316;13.950;2023-03-01T10:13:29;8.23;;;4.25;;
11247;SDS011;5681;53.316;13.950;2023-03-01T10:16:01;8.13;;;4.20;;
11247;SDS011;5681;53.316;13.950;2023-03-01T10:18:31;5.88;;;3.50;;
11247;SDS011;5681;53.316;13.950;2023-03-01T10:21:07;4.30;;;3.80;;
11247;SDS011;5681;53.316;13.950;2023-03-01T10:23:39;7.20;;;3.97;;
11247;SDS011;5681;53.316;13.950;2023-03-01T10:26:08;6.80;;;4.28;;
11247;SDS011;5681;53.316;13.950;2023-03-01T10:28:43;5.53;;;4.03;;
11247;SDS011;5681;53.316;13.950;2023-03-01T10:31:13;6.07;;;4.85;;
11247;SDS011;5681;53.316;13.950;2023-03-01T10:33:41;9.15;;;4.65;;
11247;SDS011;5681;53.316;13.950;2023-03-01T10:36:09;5.97;;;3.95;;
11247;SDS011;5681;53.316;13.950;2023-03-01T10:38:48;12.60;;;4.22;;
11247;SDS011;5681;53.316;13.950;2023-03-01T10:41:17;9.25;;;3.53;;
11247;SDS011;5681;53.316;13.950;2023-03-01T10:43:44;9.75;;;3.88;;
11247;SDS011;5681;53.316;13.950;2023-03-01T10:46:21;14.88;;;4.50;;
11247;SDS011;5681;53.316;13.950;2023-03-01T10:49:05;6.45;;;3.80;;
11247;SDS011;5681;53.316;13.950;2023-03-01T10:51:34;7.28;;;4.22;;
11247;SDS011;5681;53.316;13.950;2023-03-01T10:54:00;4.78;;;3.85;;
11247;SDS011;5681;53.316;13.950;2023-03-01T10:56:27;6.65;;;4.60;;
11247;SDS011;5681;53.316;13.950;2023-03-01T10:58:57;7.28;;;4.20;;
11247;SDS011;5681;53.316;13.950;2023-03-01T11:01:25;7.45;;;4.05;;
11247;SDS011;5681;53.316;13.950;2023-03-01T11:04:03;5.97;;;4.03;;
11247;SDS011;5681;53.316;13.950;2023-03-01T11:06:38;5.97;;;3.85;;
11247;SDS011;5681;53.316;13.950;2023-03-01T11:09:13;6.13;;;3.72;;
11247;SDS011;5681;53.316;13.950;2023-03-01T11:11:40;8.75;;;4.40;;
11247;SDS011;5681;53.316;13.950;2023-03-01T11:14:07;5.93;;;3.95;;
11247;SDS011;5681;53.316;13.950;2023-03-01T11:16:41;7.55;;;4.60;;
11247;SDS011;5681;53.316;13.950;2023-03-01T11:19:15;7.07;;;4.50;;
11247;SDS011;5681;53.316;13.950;2023-03-01T11:21:47;12.73;;;4.80;;
11247;SDS011;5681;53.316;13.950;2023-03-01T11:24:19;7.18;;;4.10;;
11247;SDS011;5681;53.316;13.950;2023-03-01T11:26:50;7.05;;;4.55;;
11247;SDS011;5681;53.316;13.950;2023-03-01T11:29:21;5.45;;;4.38;;
11247;SDS011;5681;53.316;13.950;2023-03-01T11:31:53;6.78;;;4.65;;
11247;SDS011;5681;53.316;13.950;2023-03-01T11:34:23;6.40;;;4.28;;
11247;SDS011;5681;53.316;13.950;2023-03-01T11:36:53;6.63;;;4.63;;
11247;SDS011;5681;53.316;13.950;2023-03-01T11:39:23;26.23;;;6.90;;
11247;SDS011;5681;53.316;13.950;2023-03-01T11:41:52;6.38;;;4.90;;
11247;SDS011;5681;53.316;13.950;2023-03-01T11:44:28;5.22;;;4.50;;
11247;SDS011;5681;53.316;13.950;2023-03-01T11:47:05;5.00;;;4.25;;
11247;SDS011;5681;53.316;13.950;2023-03-01T11:49:40;6.57;;;4.60;;
11247;SDS011;5681;53.316;13.950;2023-03-01T11:52:18;5.50;;;4.72;;
11247;SDS011;5681;53.316;13.950;2023-03-01T11:54:52;6.07;;;4.50;;
11247;SDS011;5681;53.316;13.950;2023-03-01T11:57:30;7.22;;;4.68;;
11247;SDS011;5681;53.316;13.950;2023-03-01T12:00:21;7.85;;;4.80;;
11247;SDS011;5681;53.316;13.950;2023-03-01T12:03:00;8.60;;;5.00;;
11247;SDS011;5681;53.316;13.950;2023-03-01T12:05:59;5.70;;;3.88;;
11247;SDS011;5681;53.316;13.950;2023-03-01T12:08:39;5.70;;;4.35;;
11247;SDS011;5681;53.316;13.950;2023-03-01T12:11:11;4.95;;;3.88;;
11247;SDS011;5681;53.316;13.950;2023-03-01T12:13:50;6.18;;;4.03;;
11247;SDS011;5681;53.316;13.950;2023-03-01T12:16:27;4.85;;;4.07;;
11247;SDS011;5681;53.316;13.950;2023-03-01T12:19:12;9.85;;;4.57;;
11247;SDS011;5681;53.316;13.950;2023-03-01T12:21:47;5.97;;;4.07;;
11247;SDS011;5681;53.316;13.950;2023-03-01T12:24:33;5.95;;;4.57;;
11247;SDS011;5681;53.316;13.950;2023-03-01T12:27:13;7.10;;;4.60;;
11247;SDS011;5681;53.316;13.950;2023-03-01T12:29:46;6.22;;;4.32;;
11247;SDS011;5681;53.316;13.950;2023-03-01T12:32:22;6.32;;;4.18;;
11247;SDS011;5681;53.316;13.950;2023-03-01T12:35:06;6.35;;;5.47;;
11247;SDS011;5681;53.316;13.950;2023-03-01T12:37:42;5.65;;;4.68;;
11247;SDS011;5681;53.316;13.950;2023-03-01T12:40:22;6.40;;;4.88;;
11247;SDS011;5681;53.316;13.950;2023-03-01T12:43:04;6.60;;;4.60;;
11247;SDS011;5681;53.316;13.950;2023-03-01T12:45:45;6.00;;;4.90;;
11247;SDS011;5681;53.316;13.950;2023-03-01T12:48:24;8.15;;;5.72;;
11247;SDS011;5681;53.316;13.950;2023-03-01T12:50:59;9.10;;;6.22;;
11247;SDS011;5681;53.316;13.950;2023-03-01T12:53:28;7.75;;;5.95;;
11247;SDS011;5681;53.316;13.950;2023-03-01T12:56:00;8.93;;;6.97;;
11247;SDS011;5681;53.316;13.950;2023-03-01T12:58:28;8.52;;;6.70;;
11247;SDS011;5681;53.316;13.950;2023-03-01T13:01:00;7.88;;;6.90;;
11247;SDS011;5681;53.316;13.950;2023-03-01T13:03:38;8.93;;;6.47;;
11247;SDS011;5681;53.316;13.950;2023-03-01T13:06:15;7.57;;;6.70;;
11247;SDS011;5681;53.316;13.950;2023-03-01T13:08:47;9.32;;;7.05;;
11247;SDS011;5681;53.316;13.950;2023-03-01T13:11:17;7.32;;;6.55;;
11247;SDS011;5681;53.316;13.950;2023-03-01T13:13:45;9.63;;;7.05;;
11247;SDS011;5681;53.316;13.950;2023-03-01T13:16:20;10.68;;;6.90;;
11247;SDS011;5681;53.316;13.950;2023-03-01T13:19:05;11.40;;;6.93;;
11247;SDS011;5681;53.316;13.950;2023-03-01T13:21:32;8.93;;;7.40;;
11247;SDS011;5681;53.316;13.950;2023-03-01T13:23:59;8.85;;;7.10;;
11247;SDS011;5681;53.316;13.950;2023-03-01T13:26:26;7.97;;;7.18;;
11247;SDS011;5681;53.316;13.950;2023-03-01T13:28:54;10.32;;;7.30;;
11247;SDS011;5681;53.316;13.950;2023-03-01T13:37:21;9.63;;;7.20;;
11247;SDS011;5681;53.316;13.950;2023-03-01T13:39:50;8.20;;;7.38;;
11247;SDS011;5681;53.316;13.950;2023-03-01T13:42:29;8.95;;;7.50;;
11247;SDS011;5681;53.316;13.950;2023-03-01T13:45:15;10.98;;;7.38;;
11247;SDS011;5681;53.316;13.950;2023-03-01T13:47:48;11.13;;;7.43;;
11247;SDS011;5681;53.316;13.950;2023-03-01T13:50:17;10.23;;;7.32;;
11247;SDS011;5681;53.316;13.950;2023-03-01T13:52:46;9.48;;;7.50;;
11247;SDS011;5681;53.316;13.950;2023-03-01T13:55:16;11.57;;;7.90;;
11247;SDS011;5681;53.316;13.950;2023-03-01T13:57:48;10.55;;;7.35;;
11247;SDS011;5681;53.316;13.950;2023-03-01T14:00:29;8.35;;;6.97;;
11247;SDS011;5681;53.316;13.950;2023-03-01T14:03:04;7.82;;;7.03;;
11247;SDS011;5681;53.316;13.950;2023-03-01T14:05:34;9.70;;;6.78;;
11247;SDS011;5681;53.316;13.950;2023-03-01T14:08:01;9.48;;;7.03;;
11247;SDS011;5681;53.316;13.950;2023-03-01T14:10:30;8.40;;;7.05;;
11247;SDS011;5681;53.316;13.950;2023-03-01T14:13:04;9.10;;;6.93;;
11247;SDS011;5681;53.316;13.950;2023-03-01T14:15:39;9.93;;;7.22;;
11247;SDS011;5681;53.316;13.950;2023-03-01T14:18:08;8.48;;;6.97;;
11247;SDS011;5681;53.316;13.950;2023-03-01T14:20:38;8.35;;;6.53;;
11247;SDS011;5681;53.316;13.950;2023-03-01T14:23:09;9.98;;;6.78;;
11247;SDS011;5681;53.316;13.950;2023-03-01T14:25:37;7.80;;;6.68;;
11247;SDS011;5681;53.316;13.950;2023-03-01T14:28:13;10.70;;;7.13;;
11247;SDS011;5681;53.316;13.950;2023-03-01T14:30:41;9.93;;;6.60;;
11247;SDS011;5681;53.316;13.950;2023-03-01T14:33:18;9.32;;;6.97;;
11247;SDS011;5681;53.316;13.950;2023-03-01T14:35:52;9.52;;;6.95;;
11247;SDS011;5681;53.316;13.950;2023-03-01T14:38:20;9.23;;;7.18;;
11247;SDS011;5681;53.316;13.950;2023-03-01T14:40:46;8.45;;;7.10;;
11247;SDS011;5681;53.316;13.950;2023-03-01T14:43:20;8.60;;;7.35;;
11247;SDS011;5681;53.316;13.950;2023-03-01T14:45:48;9.13;;;7.78;;
11247;SDS011;5681;53.316;13.950;2023-03-01T14:48:15;11.43;;;7.82;;
11247;SDS011;5681;53.316;13.950;2023-03-01T14:50:42;10.13;;;7.88;;
11247;SDS011;5681;53.316;13.950;2023-03-01T14:53:13;10.02;;;7.97;;
11247;SDS011;5681;53.316;13.950;2023-03-01T14:55:44;11.45;;;8.45;;
11247;SDS011;5681;53.316;13.950;2023-03-01T14:58:13;10.23;;;8.18;;
11247;SDS011;5681;53.316;13.950;2023-03-01T15:00:45;11.73;;;8.50;;
11247;SDS011;5681;53.316;13.950;2023-03-01T15:03:16;10.82;;;8.35;;
11247;SDS011;5681;53.316;13.950;2023-03-01T15:05:45;10.50;;;8.70;;